createdAt,value
2017-05-15T00:00:58.673Z,1019.21
2017-05-15T00:01:58.655Z,1019.2
2017-05-15T00:02:58.646Z,1019.18
2017-05-15T00:03:58.691Z,1019.2
2017-05-15T00:04:58.604Z,1019.23
2017-05-15T00:05:58.637Z,1019.24
2017-05-15T00:06:58.570Z,1019.24
2017-05-15T00:07:58.554Z,1019.25
2017-05-15T00:08:58.540Z,1019.28
2017-05-15T00:09:58.575Z,1019.31
2017-05-15T00:10:58.506Z,1019.28
2017-05-15T00:11:58.525Z,1019.29
2017-05-15T00:12:58.481Z,1019.29
2017-05-15T00:13:58.493Z,1019.29
2017-05-15T00:14:58.443Z,1019.26
2017-05-15T00:15:58.475Z,1019.24
2017-05-15T00:16:58.413Z,1019.25
2017-05-15T00:17:58.434Z,1019.28
2017-05-15T00:18:58.383Z,1019.31
2017-05-15T00:19:58.410Z,1019.32
2017-05-15T00:20:58.344Z,1019.34
2017-05-15T00:21:58.327Z,1019.33
2017-05-15T00:22:58.313Z,1019.33
2017-05-15T00:23:58.300Z,1019.33
2017-05-15T00:24:58.278Z,1019.3
2017-05-15T00:25:58.263Z,1019.33
2017-05-15T00:26:58.249Z,1019.29
2017-05-15T00:27:58.249Z,1019.3
2017-05-15T00:28:58.212Z,1019.32
2017-05-15T00:29:58.200Z,1019.32
2017-05-15T00:30:58.184Z,1019.34
2017-05-15T00:31:58.164Z,1019.33
2017-05-15T00:32:58.152Z,1019.34
2017-05-15T00:33:58.134Z,1019.36
2017-05-15T00:34:58.115Z,1019.38
2017-05-15T00:35:58.101Z,1019.38
2017-05-15T00:36:58.082Z,1019.41
2017-05-15T00:37:58.068Z,1019.4
2017-05-15T00:38:58.049Z,1019.4
2017-05-15T00:39:58.033Z,1019.41
2017-05-15T00:40:58.018Z,1019.39
2017-05-15T00:41:58.007Z,1019.43
2017-05-15T00:42:57.983Z,1019.43
2017-05-15T00:43:57.970Z,1019.45
2017-05-15T00:44:57.954Z,1019.44
2017-05-15T00:45:57.933Z,1019.45
2017-05-15T00:46:57.918Z,1019.45
2017-05-15T00:47:57.901Z,1019.43
2017-05-15T00:48:57.885Z,1019.42
2017-05-15T00:49:57.869Z,1019.43
2017-05-15T00:50:57.854Z,1019.46
2017-05-15T00:51:57.839Z,1019.44
2017-05-15T00:52:57.819Z,1019.46
2017-05-15T00:53:57.804Z,1019.44
2017-05-15T00:54:57.788Z,1019.48
2017-05-15T00:55:57.773Z,1019.51
2017-05-15T00:56:57.754Z,1019.5
2017-05-15T00:57:57.739Z,1019.54
2017-05-15T00:58:57.721Z,1019.54
2017-05-15T00:59:57.711Z,1019.55
2017-05-15T01:00:57.692Z,1019.55
2017-05-15T01:01:57.675Z,1019.57
2017-05-15T01:02:57.655Z,1019.57
2017-05-15T01:03:57.651Z,1019.63
2017-05-15T01:04:57.625Z,1019.64
2017-05-15T01:05:57.604Z,1019.62
2017-05-15T01:06:57.588Z,1019.66
2017-05-15T01:07:57.574Z,1019.64
2017-05-15T01:08:57.551Z,1019.66
2017-05-15T01:09:57.538Z,1019.69
2017-05-15T01:10:57.523Z,1019.65
2017-05-15T01:11:57.502Z,1019.7
2017-05-15T01:12:57.484Z,1019.7
2017-05-15T01:13:57.470Z,1019.69
2017-05-15T01:14:57.452Z,1019.72
2017-05-15T01:15:57.445Z,1019.71
2017-05-15T01:16:57.421Z,1019.7
2017-05-15T01:17:57.402Z,1019.68
2017-05-15T01:18:57.390Z,1019.74
2017-05-15T01:19:57.375Z,1019.7
2017-05-15T01:20:57.353Z,1019.71
2017-05-15T01:21:57.344Z,1019.74
2017-05-15T01:22:57.327Z,1019.74
2017-05-15T01:23:57.306Z,1019.77
2017-05-15T01:24:57.288Z,1019.76
2017-05-15T01:25:57.274Z,1019.76
2017-05-15T01:26:57.253Z,1019.78
2017-05-15T01:27:57.240Z,1019.79
2017-05-15T01:28:57.218Z,1019.81
2017-05-15T01:29:57.200Z,1019.82
2017-05-15T01:30:57.183Z,1019.82
2017-05-15T01:31:57.167Z,1019.87
2017-05-15T01:32:57.152Z,1019.88
2017-05-15T01:33:57.133Z,1019.9
2017-05-15T01:34:57.124Z,1019.89
2017-05-15T01:35:57.104Z,1019.91
2017-05-15T01:36:57.083Z,1019.93
2017-05-15T01:37:57.071Z,1019.9
2017-05-15T01:38:57.052Z,1019.89
2017-05-15T01:39:57.034Z,1019.94
2017-05-15T01:40:57.019Z,1019.93
2017-05-15T01:41:57.003Z,1019.96
2017-05-15T01:42:56.981Z,1019.97
2017-05-15T01:43:56.972Z,1019.98
2017-05-15T01:44:56.948Z,1019.97
2017-05-15T01:45:56.931Z,1019.95
2017-05-15T01:46:56.920Z,1019.95
2017-05-15T01:47:56.904Z,1019.98
2017-05-15T01:48:56.883Z,1019.95
2017-05-15T01:49:56.863Z,1019.98
2017-05-15T01:50:56.849Z,1019.96
2017-05-15T01:51:56.834Z,1019.91
2017-05-15T01:52:56.812Z,1019.99
2017-05-15T01:53:56.802Z,1019.98
2017-05-15T01:54:56.782Z,1019.97
2017-05-15T01:55:56.762Z,1019.98
2017-05-15T01:56:56.756Z,1019.98
2017-05-15T01:57:56.729Z,1019.96
2017-05-15T01:58:56.710Z,1020
2017-05-15T01:59:56.702Z,1020.01
2017-05-15T02:00:56.682Z,1019.98
2017-05-15T02:01:56.662Z,1019.99
2017-05-15T02:02:56.642Z,1020.02
2017-05-15T02:03:56.634Z,1020.02
2017-05-15T02:04:56.615Z,1020.03
2017-05-15T02:05:56.594Z,1020.02
2017-05-15T02:06:56.585Z,1020.04
2017-05-15T02:07:56.564Z,1020.03
2017-05-15T02:08:56.544Z,1020.02
2017-05-15T02:09:56.524Z,1020.02
2017-05-15T02:10:56.507Z,1020.04
2017-05-15T02:11:56.490Z,1020.03
2017-05-15T02:12:56.473Z,1020.07
2017-05-15T02:13:56.460Z,1020.05
2017-05-15T02:14:56.439Z,1020.07
2017-05-15T02:15:56.423Z,1020.1
2017-05-15T02:16:56.402Z,1020.1
2017-05-15T02:17:56.385Z,1020.13
2017-05-15T02:18:56.377Z,1020.12
2017-05-15T02:19:56.353Z,1020.16
2017-05-15T02:20:56.345Z,1020.17
2017-05-15T02:21:56.319Z,1020.2
2017-05-15T02:22:56.302Z,1020.2
2017-05-15T02:23:56.283Z,1020.16
2017-05-15T02:24:56.272Z,1020.2
2017-05-15T02:25:56.253Z,1020.21
2017-05-15T02:26:56.231Z,1020.21
2017-05-15T02:27:56.216Z,1020.19
2017-05-15T02:28:56.197Z,1020.22
2017-05-15T02:29:56.180Z,1020.18
2017-05-15T02:30:56.163Z,1020.19
2017-05-15T02:31:56.152Z,1020.22
2017-05-15T02:32:56.131Z,1020.21
2017-05-15T02:33:56.114Z,1020.26
2017-05-15T02:34:56.094Z,1020.24
2017-05-15T02:35:56.076Z,1020.2
2017-05-15T02:36:56.063Z,1020.25
2017-05-15T02:37:56.042Z,1020.22
2017-05-15T02:38:56.026Z,1020.18
2017-05-15T02:39:56.012Z,1020.17
2017-05-15T02:40:55.989Z,1020.18
2017-05-15T02:41:55.970Z,1020.17
2017-05-15T02:42:55.950Z,1020.15
2017-05-15T02:43:55.943Z,1020.19
2017-05-15T02:44:55.920Z,1020.19
2017-05-15T02:45:55.903Z,1020.19
2017-05-15T02:46:55.885Z,1020.19
2017-05-15T02:47:55.872Z,1020.2
2017-05-15T02:48:55.854Z,1020.2
2017-05-15T02:49:55.832Z,1020.22
2017-05-15T02:50:55.815Z,1020.24
2017-05-15T02:51:55.806Z,1020.21
2017-05-15T02:52:55.782Z,1020.25
2017-05-15T02:53:55.763Z,1020.24
2017-05-15T02:54:55.745Z,1020.27
2017-05-15T02:55:55.733Z,1020.23
2017-05-15T02:56:55.711Z,1020.26
2017-05-15T02:57:55.690Z,1020.26
2017-05-15T02:58:55.673Z,1020.24
2017-05-15T02:59:55.657Z,1020.25
2017-05-15T03:00:55.642Z,1020.23
2017-05-15T03:01:55.629Z,1020.24
2017-05-15T03:02:55.603Z,1020.23
2017-05-15T03:03:55.593Z,1020.22
2017-05-15T03:04:55.568Z,1020.22
2017-05-15T03:05:55.548Z,1020.27
2017-05-15T03:06:55.532Z,1020.25
2017-05-15T03:07:55.514Z,1020.24
2017-05-15T03:08:55.500Z,1020.28
2017-05-15T03:09:55.485Z,1020.25
2017-05-15T03:10:55.464Z,1020.29
2017-05-15T03:11:55.445Z,1020.3
2017-05-15T03:12:55.428Z,1020.3
2017-05-15T03:13:55.413Z,1020.31
2017-05-15T03:14:55.392Z,1020.3
2017-05-15T03:15:55.372Z,1020.31
2017-05-15T03:16:55.362Z,1020.35
2017-05-15T03:17:55.345Z,1020.37
2017-05-15T03:18:55.320Z,1020.35
2017-05-15T03:19:55.303Z,1020.38
2017-05-15T03:20:55.284Z,1020.38
2017-05-15T03:21:55.267Z,1020.37
2017-05-15T03:22:55.254Z,1020.4
2017-05-15T03:23:55.234Z,1020.39
2017-05-15T03:24:55.221Z,1020.37
2017-05-15T03:25:55.204Z,1020.38
2017-05-15T03:26:55.184Z,1020.43
2017-05-15T03:27:55.163Z,1020.42
2017-05-15T03:28:55.143Z,1020.42
2017-05-15T03:29:55.126Z,1020.4
2017-05-15T03:30:55.112Z,1020.38
2017-05-15T03:31:55.090Z,1020.42
2017-05-15T03:32:55.075Z,1020.44
2017-05-15T03:33:55.055Z,1020.44
2017-05-15T03:34:55.035Z,1020.48
2017-05-15T03:35:55.022Z,1020.46
2017-05-15T03:36:55.006Z,1020.49
2017-05-15T03:37:54.985Z,1020.52
2017-05-15T03:38:54.964Z,1020.53
2017-05-15T03:39:54.952Z,1020.51
2017-05-15T03:40:54.930Z,1020.51
2017-05-15T03:41:54.913Z,1020.56
2017-05-15T03:42:54.903Z,1020.56
2017-05-15T03:43:54.875Z,1020.56
2017-05-15T03:44:54.863Z,1020.58
2017-05-15T03:45:54.841Z,1020.59
2017-05-15T03:46:54.822Z,1020.57
2017-05-15T03:47:54.803Z,1020.55
2017-05-15T03:48:54.794Z,1020.56
2017-05-15T03:49:54.772Z,1020.58
2017-05-15T03:50:54.752Z,1020.56
2017-05-15T03:51:54.732Z,1020.56
2017-05-15T03:52:54.717Z,1020.58
2017-05-15T03:53:54.701Z,1020.6
2017-05-15T03:54:54.681Z,1020.57
2017-05-15T03:55:54.662Z,1020.59
2017-05-15T03:56:54.746Z,1020.6
2017-05-15T03:57:54.631Z,1020.61
2017-05-15T03:58:54.618Z,1020.61
2017-05-15T03:59:54.592Z,1020.66
2017-05-15T04:00:54.672Z,1020.67
2017-05-15T04:01:54.554Z,1020.73
2017-05-15T04:02:54.638Z,1020.72
2017-05-15T04:03:54.524Z,1020.73
2017-05-15T04:04:54.574Z,1020.74
2017-05-15T04:05:54.483Z,1020.72
2017-05-15T04:06:54.471Z,1020.73
2017-05-15T04:07:54.456Z,1020.72
2017-05-15T04:08:54.466Z,1020.71
2017-05-15T04:09:54.413Z,1020.7
2017-05-15T04:10:54.493Z,1020.69
2017-05-15T04:11:54.374Z,1020.76
2017-05-15T04:12:54.391Z,1020.72
2017-05-15T04:13:54.340Z,1020.72
2017-05-15T04:14:54.324Z,1020.76
2017-05-15T04:15:54.303Z,1020.78
2017-05-15T04:16:54.293Z,1020.79
2017-05-15T04:17:54.272Z,1020.77
2017-05-15T04:18:54.308Z,1020.82
2017-05-15T04:19:54.233Z,1020.79
2017-05-15T04:20:54.218Z,1020.8
2017-05-15T04:21:54.202Z,1020.82
2017-05-15T04:22:54.184Z,1020.83
2017-05-15T04:23:54.165Z,1020.89
2017-05-15T04:24:54.142Z,1020.86
2017-05-15T04:25:54.122Z,1020.91
2017-05-15T04:26:54.158Z,1020.91
2017-05-15T04:27:54.090Z,1020.9
2017-05-15T04:28:54.074Z,1020.88
2017-05-15T04:29:54.051Z,1020.92
2017-05-15T04:30:54.042Z,1020.92
2017-05-15T04:31:54.022Z,1020.9
2017-05-15T04:32:54.005Z,1020.93
2017-05-15T04:33:53.991Z,1020.95
2017-05-15T04:34:53.963Z,1020.96
2017-05-15T04:35:53.942Z,1020.96
2017-05-15T04:36:53.924Z,1020.92
2017-05-15T04:37:53.907Z,1020.99
2017-05-15T04:38:53.890Z,1021.02
2017-05-15T04:39:53.873Z,1021.01
2017-05-15T04:40:53.851Z,1020.99
2017-05-15T04:41:53.839Z,1021.03
2017-05-15T04:42:53.825Z,1021.03
2017-05-15T04:43:53.798Z,1021.04
2017-05-15T04:44:53.783Z,1021.04
2017-05-15T04:45:53.763Z,1021.03
2017-05-15T04:46:53.755Z,1021.05
2017-05-15T04:47:53.733Z,1021.07
2017-05-15T04:48:53.713Z,1021.07
2017-05-15T04:49:53.692Z,1021.08
2017-05-15T04:50:53.672Z,1021.11
2017-05-15T04:51:53.658Z,1021.1
2017-05-15T04:52:53.640Z,1021.14
2017-05-15T04:53:53.621Z,1021.17
2017-05-15T04:54:53.604Z,1021.17
2017-05-15T04:55:53.584Z,1021.16
2017-05-15T04:56:53.573Z,1021.21
2017-05-15T04:57:53.547Z,1021.21
2017-05-15T04:58:53.532Z,1021.2
2017-05-15T04:59:53.512Z,1021.21
2017-05-15T05:00:53.492Z,1021.21
2017-05-15T05:01:53.475Z,1021.27
2017-05-15T05:02:53.460Z,1021.25
2017-05-15T05:03:53.442Z,1021.28
2017-05-15T05:04:53.425Z,1021.27
2017-05-15T05:05:53.406Z,1021.33
2017-05-15T05:06:53.385Z,1021.31
2017-05-15T05:07:53.372Z,1021.29
2017-05-15T05:08:53.355Z,1021.32
2017-05-15T05:09:53.334Z,1021.31
2017-05-15T05:10:53.318Z,1021.31
2017-05-15T05:11:53.301Z,1021.34
2017-05-15T05:12:53.284Z,1021.33
2017-05-15T05:13:53.263Z,1021.35
2017-05-15T05:14:53.250Z,1021.37
2017-05-15T05:15:53.233Z,1021.39
2017-05-15T05:16:53.215Z,1021.38
2017-05-15T05:17:53.192Z,1021.4
2017-05-15T05:18:53.177Z,1021.42
2017-05-15T05:19:53.161Z,1021.4
2017-05-15T05:20:53.143Z,1021.39
2017-05-15T05:21:53.136Z,1021.38
2017-05-15T05:22:53.107Z,1021.39
2017-05-15T05:23:53.089Z,1021.4
2017-05-15T05:24:53.069Z,1021.39
2017-05-15T05:25:53.055Z,1021.4
2017-05-15T05:26:53.041Z,1021.42
2017-05-15T05:27:53.021Z,1021.42
2017-05-15T05:28:53.004Z,1021.44
2017-05-15T05:29:52.985Z,1021.48
2017-05-15T05:30:52.973Z,1021.44
2017-05-15T05:31:52.954Z,1021.5
2017-05-15T05:32:52.932Z,1021.51
2017-05-15T05:33:52.920Z,1021.55
2017-05-15T05:34:52.953Z,1021.54
2017-05-15T05:35:52.895Z,1021.58
2017-05-15T05:36:52.870Z,1021.56
2017-05-15T05:37:52.853Z,1021.63
2017-05-15T05:38:52.829Z,1021.64
2017-05-15T05:39:52.814Z,1021.61
2017-05-15T05:40:52.793Z,1021.66
2017-05-15T05:41:52.787Z,1021.67
2017-05-15T05:42:52.760Z,1021.67
2017-05-15T05:43:52.742Z,1021.67
2017-05-15T05:44:52.725Z,1021.67
2017-05-15T05:45:52.707Z,1021.68
2017-05-15T05:46:52.688Z,1021.7
2017-05-15T05:47:52.674Z,1021.7
2017-05-15T05:48:52.657Z,1021.72
2017-05-15T05:49:52.644Z,1021.73
2017-05-15T05:50:52.622Z,1021.73
2017-05-15T05:51:52.603Z,1021.72
2017-05-15T05:52:52.592Z,1021.74
2017-05-15T05:53:52.573Z,1021.76
2017-05-15T05:54:52.553Z,1021.76
2017-05-15T05:55:52.544Z,1021.79
2017-05-15T05:56:52.523Z,1021.8
2017-05-15T05:57:52.503Z,1021.78
2017-05-15T05:58:52.488Z,1021.81
2017-05-15T05:59:52.468Z,1021.82
2017-05-15T06:00:52.454Z,1021.85
2017-05-15T06:01:52.436Z,1021.85
2017-05-15T06:02:52.423Z,1021.86
2017-05-15T06:03:52.403Z,1021.84
2017-05-15T06:04:52.384Z,1021.88
2017-05-15T06:05:52.368Z,1021.93
2017-05-15T06:06:52.354Z,1021.95
2017-05-15T06:07:52.335Z,1021.91
2017-05-15T06:08:52.313Z,1021.96
2017-05-15T06:09:52.300Z,1021.98
2017-05-15T06:10:52.284Z,1021.97
2017-05-15T06:11:52.263Z,1021.97
2017-05-15T06:12:52.247Z,1021.97
2017-05-15T06:13:52.232Z,1021.97
2017-05-15T06:14:52.212Z,1021.94
2017-05-15T06:15:52.204Z,1021.96
2017-05-15T06:16:52.183Z,1021.93
2017-05-15T06:17:52.163Z,1021.93
2017-05-15T06:18:52.146Z,1021.96
2017-05-15T06:19:52.154Z,1021.96
2017-05-15T06:20:52.114Z,1021.97
2017-05-15T06:21:52.095Z,1021.97
2017-05-15T06:22:52.082Z,1022.03
2017-05-15T06:23:52.059Z,1021.99
2017-05-15T06:24:52.050Z,1021.99
2017-05-15T06:25:52.026Z,1022.03
2017-05-15T06:26:52.010Z,1022
2017-05-15T06:27:51.993Z,1022.05
2017-05-15T06:28:51.982Z,1022.05
2017-05-15T06:29:51.962Z,1022.03
2017-05-15T06:30:51.946Z,1022
2017-05-15T06:31:51.931Z,1022
2017-05-15T06:32:51.915Z,1022.03
2017-05-15T06:33:51.899Z,1022.08
2017-05-15T06:34:51.881Z,1022.08
2017-05-15T06:35:51.863Z,1022.1
2017-05-15T06:36:51.844Z,1022.06
2017-05-15T06:37:51.833Z,1022.08
2017-05-15T06:38:51.810Z,1022.09
2017-05-15T06:39:51.804Z,1022.07
2017-05-15T06:40:51.790Z,1022.1
2017-05-15T06:41:51.765Z,1022.12
2017-05-15T06:42:51.746Z,1022.13
2017-05-15T06:43:51.734Z,1022.1
2017-05-15T06:44:51.721Z,1022.13
2017-05-15T06:45:51.703Z,1022.15
2017-05-15T06:46:51.682Z,1022.08
2017-05-15T06:47:51.675Z,1022.14
2017-05-15T06:48:51.649Z,1022.14
2017-05-15T06:49:51.635Z,1022.15
2017-05-15T06:50:51.617Z,1022.19
2017-05-15T06:51:51.613Z,1022.18
2017-05-15T06:52:51.584Z,1022.17
2017-05-15T06:53:51.568Z,1022.17
2017-05-15T06:54:51.553Z,1022.18
2017-05-15T06:55:51.535Z,1022.2
2017-05-15T06:56:51.519Z,1022.19
2017-05-15T06:57:51.503Z,1022.23
2017-05-15T06:58:51.491Z,1022.23
2017-05-15T06:59:51.474Z,1022.22
2017-05-15T07:00:51.460Z,1022.23
2017-05-15T07:01:51.444Z,1022.23
2017-05-15T07:02:51.423Z,1022.22
2017-05-15T07:03:51.421Z,1022.24
2017-05-15T07:04:51.395Z,1022.24
2017-05-15T07:05:51.384Z,1022.25
2017-05-15T07:06:51.364Z,1022.26
2017-05-15T07:07:51.355Z,1022.28
2017-05-15T07:08:51.334Z,1022.32
2017-05-15T07:09:51.315Z,1022.33
2017-05-15T07:10:51.296Z,1022.32
2017-05-15T07:11:51.284Z,1022.31
2017-05-15T07:12:51.272Z,1022.31
2017-05-15T07:13:51.269Z,1022.31
2017-05-15T07:14:51.234Z,1022.32
2017-05-15T07:15:51.225Z,1022.28
2017-05-15T07:16:51.205Z,1022.28
2017-05-15T07:17:51.196Z,1022.26
2017-05-15T07:18:51.170Z,1022.24
2017-05-15T07:19:51.155Z,1022.26
2017-05-15T07:20:51.142Z,1022.29
2017-05-15T07:21:51.125Z,1022.29
2017-05-15T07:22:51.111Z,1022.28
2017-05-15T07:23:51.094Z,1022.28
2017-05-15T07:24:51.081Z,1022.27
2017-05-15T07:25:51.058Z,1022.27
2017-05-15T07:26:51.046Z,1022.25
2017-05-15T07:27:51.035Z,1022.26
2017-05-15T07:28:51.015Z,1022.25
2017-05-15T07:29:51.000Z,1022.34
2017-05-15T07:30:50.985Z,1022.26
2017-05-15T07:31:50.974Z,1022.31
2017-05-15T07:32:50.948Z,1022.31
2017-05-15T07:33:50.943Z,1022.32
2017-05-15T07:34:50.924Z,1022.36
2017-05-15T07:35:50.912Z,1022.33
2017-05-15T07:36:50.895Z,1022.34
2017-05-15T07:37:50.875Z,1022.36
2017-05-15T07:38:50.856Z,1022.33
2017-05-15T07:39:50.849Z,1022.37
2017-05-15T07:40:50.824Z,1022.37
2017-05-15T07:41:50.811Z,1022.33
2017-05-15T07:42:50.798Z,1022.37
2017-05-15T07:43:50.931Z,1022.37
2017-05-15T07:44:50.770Z,1022.4
2017-05-15T07:45:50.755Z,1022.35
2017-05-15T07:46:50.738Z,1022.4
2017-05-15T07:47:50.824Z,1022.41
2017-05-15T07:48:50.706Z,1022.42
2017-05-15T07:49:50.691Z,1022.43
2017-05-15T07:50:50.675Z,1022.44
2017-05-15T07:51:50.765Z,1022.43
2017-05-15T07:52:50.646Z,1022.44
2017-05-15T07:53:50.733Z,1022.41
2017-05-15T07:54:50.624Z,1022.46
2017-05-15T07:55:50.605Z,1022.42
2017-05-15T07:56:50.585Z,1022.47
2017-05-15T07:57:50.576Z,1022.43
2017-05-15T07:58:50.556Z,1022.49
2017-05-15T07:59:50.599Z,1022.45
2017-05-15T08:00:50.532Z,1022.47
2017-05-15T08:01:50.566Z,1022.46
2017-05-15T08:02:50.496Z,1022.49
2017-05-15T08:03:50.493Z,1022.52
2017-05-15T08:04:50.475Z,1022.58
2017-05-15T08:05:50.458Z,1022.64
2017-05-15T08:06:50.445Z,1022.95
2017-05-15T08:07:50.428Z,1023.24
2017-05-15T08:08:50.421Z,1023.21
2017-05-15T08:09:50.397Z,1023.12
2017-05-15T08:10:50.398Z,1023.12
2017-05-15T08:11:50.377Z,1023.14
2017-05-15T08:12:50.356Z,1023.18
2017-05-15T08:13:50.345Z,1023.17
2017-05-15T08:14:50.325Z,1023.19
2017-05-15T08:15:50.316Z,1023.21
2017-05-15T08:16:50.299Z,1023.23
2017-05-15T08:17:50.286Z,1023.15
2017-05-15T08:18:50.274Z,1023.2
2017-05-15T08:19:50.263Z,1023.14
2017-05-15T08:20:50.252Z,1023.16
2017-05-15T08:21:50.242Z,1023.24
2017-05-15T08:22:50.231Z,1023.28
2017-05-15T08:23:50.216Z,1023.26
2017-05-15T08:24:50.199Z,1023.35
2017-05-15T08:25:50.194Z,1023.41
2017-05-15T08:26:50.178Z,1023.36
2017-05-15T08:27:50.174Z,1023.35
2017-05-15T08:28:50.164Z,1023.39
2017-05-15T08:29:50.153Z,1023.39
2017-05-15T08:30:50.143Z,1023.36
2017-05-15T08:31:50.133Z,1023.35
2017-05-15T08:32:50.123Z,1023.38
2017-05-15T08:33:50.113Z,1023.39
2017-05-15T08:34:50.107Z,1023.37
2017-05-15T08:35:50.106Z,1023.37
2017-05-15T08:36:50.094Z,1023.35
2017-05-15T08:37:50.084Z,1023.35
2017-05-15T08:38:50.075Z,1023.37
2017-05-15T08:39:50.072Z,1023.32
2017-05-15T08:40:50.061Z,1023.34
2017-05-15T08:41:50.054Z,1023.29
2017-05-15T08:42:50.052Z,1023.32
2017-05-15T08:43:50.044Z,1023.3
2017-05-15T08:44:50.034Z,1023.29
2017-05-15T08:45:50.033Z,1023.23
2017-05-15T08:46:50.024Z,1023.27
2017-05-15T08:47:50.016Z,1023.29
2017-05-15T08:48:50.012Z,1023.29
2017-05-15T08:49:50.003Z,1023.31
2017-05-15T08:50:49.998Z,1023.32
2017-05-15T08:51:49.996Z,1023.33
2017-05-15T08:52:49.994Z,1023.38
2017-05-15T08:53:49.982Z,1023.41
2017-05-15T08:54:49.980Z,1023.42
2017-05-15T08:55:49.974Z,1023.44
2017-05-15T08:56:49.973Z,1023.39
2017-05-15T08:57:49.963Z,1023.42
2017-05-15T08:58:49.962Z,1023.38
2017-05-15T08:59:49.964Z,1023.37
2017-05-15T09:00:49.951Z,1023.42
2017-05-15T09:01:49.947Z,1023.44
2017-05-15T09:02:49.948Z,1023.56
2017-05-15T09:03:49.942Z,1023.71
2017-05-15T09:04:49.932Z,1023.65
2017-05-15T09:05:49.934Z,1024.14
2017-05-15T09:06:49.925Z,1024.09
2017-05-15T09:07:49.923Z,1023.98
2017-05-15T09:08:49.921Z,1023.85
2017-05-15T09:09:49.922Z,1023.79
2017-05-15T09:10:49.924Z,1023.81
2017-05-15T09:11:49.915Z,1023.8
2017-05-15T09:12:49.936Z,1023.73
2017-05-15T09:13:49.912Z,1023.75
2017-05-15T09:14:49.912Z,1023.67
2017-05-15T09:15:49.902Z,1023.67
2017-05-15T09:16:49.910Z,1023.6
2017-05-15T09:17:49.905Z,1023.66
2017-05-15T09:18:49.893Z,1023.69
2017-05-15T09:19:49.893Z,1023.62
2017-05-15T09:20:49.888Z,1023.63
2017-05-15T09:21:49.887Z,1023.57
2017-05-15T09:22:49.893Z,1023.49
2017-05-15T09:23:49.882Z,1023.44
2017-05-15T09:24:49.883Z,1023.45
2017-05-15T09:25:49.876Z,1023.43
2017-05-15T09:26:49.882Z,1023.57
2017-05-15T09:27:49.869Z,1023.5
2017-05-15T09:28:49.875Z,1023.48
2017-05-15T09:29:49.865Z,1023.52
2017-05-15T09:30:49.863Z,1023.49
2017-05-15T09:31:49.860Z,1023.54
2017-05-15T09:32:49.864Z,1023.53
2017-05-15T09:33:49.862Z,1023.57
2017-05-15T09:34:49.851Z,1023.52
2017-05-15T09:35:49.851Z,1023.54
2017-05-15T09:36:49.853Z,1023.54
2017-05-15T09:37:49.849Z,1023.52
2017-05-15T09:38:49.853Z,1023.54
2017-05-15T09:39:49.841Z,1023.57
2017-05-15T09:40:49.839Z,1023.54
2017-05-15T09:41:49.837Z,1023.5
2017-05-15T09:42:49.883Z,1023.43
2017-05-15T09:43:49.832Z,1023.39
2017-05-15T09:44:49.831Z,1023.34
2017-05-15T09:45:49.827Z,1023.36
2017-05-15T09:46:49.832Z,1023.34
2017-05-15T09:47:49.830Z,1023.41
2017-05-15T09:48:49.823Z,1023.34
2017-05-15T09:49:49.822Z,1023.31
2017-05-15T09:50:49.817Z,1023.34
2017-05-15T09:51:49.813Z,1023.31
2017-05-15T09:52:49.816Z,1023.32
2017-05-15T09:53:49.807Z,1023.35
2017-05-15T09:54:49.811Z,1023.33
2017-05-15T09:55:49.805Z,1023.33
2017-05-15T09:56:49.800Z,1023.3
2017-05-15T09:57:49.805Z,1023.3
2017-05-15T09:58:49.794Z,1023.26
2017-05-15T09:59:49.790Z,1023.26
2017-05-15T10:00:49.793Z,1023.23
2017-05-15T10:01:49.784Z,1023.23
2017-05-15T10:02:49.782Z,1023.24
2017-05-15T10:03:49.778Z,1023.2
2017-05-15T10:04:49.776Z,1023.16
2017-05-15T10:05:49.771Z,1023.15
2017-05-15T10:06:49.776Z,1023.2
2017-05-15T10:07:49.762Z,1023.18
2017-05-15T10:08:49.762Z,1023.22
2017-05-15T10:09:49.763Z,1023.24
2017-05-15T10:10:49.751Z,1023.2
2017-05-15T10:11:49.749Z,1023.19
2017-05-15T10:12:49.741Z,1023.13
2017-05-15T10:13:49.740Z,1023.08
2017-05-15T10:14:49.731Z,1023.04
2017-05-15T10:15:49.742Z,1023.15
2017-05-15T10:16:49.722Z,1023.1
2017-05-15T10:17:49.719Z,1023.19
2017-05-15T10:18:49.709Z,1023.22
2017-05-15T10:19:49.700Z,1023.14
2017-05-15T10:20:49.704Z,1023.11
2017-05-15T10:21:49.689Z,1023.15
2017-05-15T10:22:49.683Z,1023.09
2017-05-15T10:23:49.677Z,1023.11
2017-05-15T10:24:49.672Z,1023.07
2017-05-15T10:25:49.662Z,1023.09
2017-05-15T10:26:49.657Z,1023.15
2017-05-15T10:27:49.650Z,1023.14
2017-05-15T10:28:49.641Z,1023.17
2017-05-15T10:29:49.646Z,1023.13
2017-05-15T10:30:49.629Z,1023.12
2017-05-15T10:31:49.621Z,1023.1
2017-05-15T10:32:49.611Z,1023.06
2017-05-15T10:33:49.611Z,1023.06
2017-05-15T10:34:49.602Z,1023.04
2017-05-15T10:35:49.603Z,1023.03
2017-05-15T10:36:49.581Z,1023
2017-05-15T10:37:49.581Z,1023.07
2017-05-15T10:38:49.569Z,1023.04
2017-05-15T10:39:49.563Z,1023.04
2017-05-15T10:40:49.552Z,1023.02
2017-05-15T10:41:49.550Z,1022.99
2017-05-15T10:42:49.541Z,1023.03
2017-05-15T10:43:49.541Z,1023.01
2017-05-15T10:44:49.525Z,1023.02
2017-05-15T10:45:49.522Z,1023.01
2017-05-15T10:46:49.517Z,1022.97
2017-05-15T10:47:49.508Z,1022.95
2017-05-15T10:48:49.494Z,1023.01
2017-05-15T10:49:49.485Z,1023.02
2017-05-15T10:50:49.483Z,1023.01
2017-05-15T10:51:49.466Z,1023.04
2017-05-15T10:52:49.466Z,1023.02
2017-05-15T10:53:49.456Z,1023.03
2017-05-15T10:54:49.453Z,1023.03
2017-05-15T10:55:49.437Z,1023.02
2017-05-15T10:56:49.432Z,1022.98
2017-05-15T10:57:49.422Z,1022.97
2017-05-15T10:58:49.418Z,1022.99
2017-05-15T10:59:49.409Z,1022.96
2017-05-15T11:00:49.405Z,1022.98
2017-05-15T11:01:49.398Z,1022.99
2017-05-15T11:02:49.387Z,1023
2017-05-15T11:03:49.380Z,1023.01
2017-05-15T11:04:49.517Z,1023.02
2017-05-15T11:05:49.363Z,1023.02
2017-05-15T11:06:49.361Z,1022.98
2017-05-15T11:07:49.348Z,1022.9
2017-05-15T11:08:49.343Z,1022.93
2017-05-15T11:09:49.335Z,1022.89
2017-05-15T11:10:49.323Z,1022.91
2017-05-15T11:11:49.316Z,1022.95
2017-05-15T11:12:49.311Z,1022.91
2017-05-15T11:13:49.301Z,1022.98
2017-05-15T11:14:49.302Z,1022.94
2017-05-15T11:15:49.283Z,1022.95
2017-05-15T11:16:49.274Z,1022.88
2017-05-15T11:17:49.271Z,1022.94
2017-05-15T11:18:49.262Z,1022.95
2017-05-15T11:19:49.247Z,1022.89
2017-05-15T11:20:49.244Z,1022.87
2017-05-15T11:21:49.233Z,1022.9
2017-05-15T11:22:49.222Z,1022.89
2017-05-15T11:23:49.226Z,1022.9
2017-05-15T11:24:49.208Z,1022.88
2017-05-15T11:25:49.209Z,1022.9
2017-05-15T11:26:49.195Z,1022.92
2017-05-15T11:27:49.182Z,1022.93
2017-05-15T11:28:49.171Z,1022.91
2017-05-15T11:29:49.163Z,1022.88
2017-05-15T11:30:49.157Z,1022.87
2017-05-15T11:31:49.155Z,1022.86
2017-05-15T11:32:49.141Z,1022.84
2017-05-15T11:33:49.134Z,1022.86
2017-05-15T11:34:49.122Z,1022.91
2017-05-15T11:35:49.113Z,1022.91
2017-05-15T11:36:49.101Z,1022.91
2017-05-15T11:37:49.092Z,1022.85
2017-05-15T11:38:49.086Z,1022.89
2017-05-15T11:39:49.083Z,1022.88
2017-05-15T11:40:49.074Z,1022.96
2017-05-15T11:41:49.064Z,1022.95
2017-05-15T11:42:49.052Z,1022.92
2017-05-15T11:43:49.089Z,1022.85
2017-05-15T11:44:49.042Z,1022.91
2017-05-15T11:45:49.034Z,1022.85
2017-05-15T11:46:49.012Z,1022.89
2017-05-15T11:47:49.008Z,1022.9
2017-05-15T11:48:49.003Z,1022.86
2017-05-15T11:49:48.993Z,1022.82
2017-05-15T11:50:48.978Z,1022.83
2017-05-15T11:51:48.974Z,1022.89
2017-05-15T11:52:48.961Z,1022.87
2017-05-15T11:53:48.980Z,1022.86
2017-05-15T11:54:48.948Z,1022.78
2017-05-15T11:55:48.940Z,1022.79
2017-05-15T11:56:48.928Z,1022.81
2017-05-15T11:57:48.924Z,1022.82
2017-05-15T11:58:48.923Z,1022.83
2017-05-15T11:59:48.902Z,1022.84
2017-05-15T12:00:48.905Z,1022.85
2017-05-15T12:01:48.893Z,1022.8
2017-05-15T12:02:48.882Z,1022.86
2017-05-15T12:03:48.883Z,1022.83
2017-05-15T12:04:48.862Z,1022.8
2017-05-15T12:05:48.857Z,1022.81
2017-05-15T12:06:48.853Z,1022.79
2017-05-15T12:07:48.841Z,1022.83
2017-05-15T12:08:48.836Z,1022.77